createdAt,value
2022-11-29T00:01:26.554Z,33.23
2022-11-29T00:03:53.940Z,29.60
2022-11-29T00:06:23.137Z,32.03
2022-11-29T00:08:50.216Z,31.67
2022-11-29T00:11:38.465Z,30.63
2022-11-29T00:14:16.875Z,31.63
2022-11-29T00:16:43.829Z,30.57
2022-11-29T00:19:12.822Z,31.70
2022-11-29T00:21:39.388Z,29.67
2022-11-29T00:24:06.268Z,31.90
2022-11-29T00:26:32.793Z,32.23
2022-11-29T00:28:59.318Z,31.93
2022-11-29T00:31:30.377Z,34.10
2022-11-29T00:33:58.806Z,34.90
2022-11-29T00:36:25.993Z,32.07
2022-11-29T00:38:52.787Z,28.50
2022-11-29T00:41:20.022Z,34.73
2022-11-29T00:43:46.575Z,31.97
2022-11-29T00:46:13.186Z,32.70
2022-11-29T00:48:39.950Z,35.80
2022-11-29T00:51:07.604Z,31.77
2022-11-29T00:53:35.059Z,33.43
2022-11-29T00:56:02.756Z,33.70
2022-11-29T00:58:29.454Z,33.53
2022-11-29T01:00:56.559Z,31.30
2022-11-29T01:03:23.168Z,30.87
2022-11-29T01:05:50.156Z,30.77
2022-11-29T01:08:17.313Z,31.20
2022-11-29T01:10:43.927Z,32.97
2022-11-29T01:13:10.965Z,31.77
2022-11-29T01:15:38.120Z,34.23
2022-11-29T01:18:04.843Z,34.97
2022-11-29T01:20:31.380Z,32.70
2022-11-29T01:22:58.394Z,32.67
2022-11-29T01:25:25.036Z,32.00
2022-11-29T01:27:51.581Z,31.87
2022-11-29T01:30:18.173Z,30.57
2022-11-29T01:32:44.727Z,33.07
2022-11-29T01:35:11.395Z,31.77
2022-11-29T01:37:37.934Z,31.27
2022-11-29T01:40:05.170Z,36.00
2022-11-29T01:42:31.732Z,31.87
2022-11-29T01:45:04.216Z,36.43
2022-11-29T01:47:31.413Z,34.47
2022-11-29T01:49:58.811Z,36.83
2022-11-29T01:52:32.197Z,35.77
2022-11-29T01:55:03.051Z,31.00
2022-11-29T01:57:31.343Z,32.47
2022-11-29T02:00:04.240Z,32.57
2022-11-29T02:02:57.136Z,32.03
2022-11-29T02:05:25.617Z,33.20
2022-11-29T02:07:55.895Z,33.90
2022-11-29T02:10:40.435Z,32.03
2022-11-29T02:13:40.096Z,30.97
2022-11-29T02:16:17.575Z,30.70
2022-11-29T02:18:52.388Z,37.10
2022-11-29T02:21:30.327Z,35.93
2022-11-29T02:24:32.593Z,31.97
2022-11-29T02:27:40.807Z,33.17
2022-11-29T02:30:23.899Z,34.53
2022-11-29T02:33:26.168Z,34.03
2022-11-29T02:36:18.954Z,34.37
2022-11-29T02:39:24.326Z,32.73
2022-11-29T02:42:30.152Z,34.30
2022-11-29T02:45:37.685Z,33.60
2022-11-29T02:48:50.692Z,33.43
2022-11-29T02:51:30.802Z,34.63
2022-11-29T02:54:06.190Z,33.20
2022-11-29T02:56:38.977Z,36.13
2022-11-29T02:59:50.442Z,31.87
2022-11-29T03:02:24.954Z,35.87
2022-11-29T03:05:28.297Z,35.13
2022-11-29T03:08:16.445Z,33.90
2022-11-29T03:11:02.832Z,37.60
2022-11-29T03:13:55.625Z,32.67
2022-11-29T03:16:42.719Z,34.73
2022-11-29T03:19:31.879Z,36.03
2022-11-29T03:22:41.253Z,35.77
2022-11-29T03:25:24.253Z,33.33
2022-11-29T03:27:59.891Z,35.07
2022-11-29T03:30:27.436Z,31.40
2022-11-29T03:33:13.144Z,32.77
2022-11-29T03:35:53.451Z,34.13
2022-11-29T03:38:41.888Z,36.03
2022-11-29T03:41:28.163Z,34.60
2022-11-29T03:44:09.442Z,30.97
2022-11-29T03:46:56.299Z,34.23
2022-11-29T03:49:29.386Z,36.40
2022-11-29T03:52:28.792Z,35.23
2022-11-29T03:55:21.466Z,33.40
2022-11-29T03:58:16.212Z,34.40
2022-11-29T04:00:48.926Z,34.57
2022-11-29T04:03:39.515Z,33.87
2022-11-29T04:06:34.930Z,35.27
2022-11-29T04:09:29.227Z,34.93
2022-11-29T04:12:21.133Z,31.30
2022-11-29T04:15:22.897Z,35.37
2022-11-29T04:18:08.638Z,33.87
2022-11-29T04:21:13.457Z,33.27
2022-11-29T04:23:59.589Z,34.07
2022-11-29T04:27:14.347Z,34.03
2022-11-29T04:30:04.532Z,33.93
2022-11-29T04:32:59.433Z,32.90
2022-11-29T04:35:51.745Z,34.27
2022-11-29T04:39:00.027Z,34.03
2022-11-29T04:41:57.800Z,32.37
2022-11-29T04:44:44.703Z,35.47
2022-11-29T04:47:41.247Z,34.57
2022-11-29T04:50:27.002Z,34.23
2022-11-29T04:53:28.440Z,33.80
2022-11-29T04:56:22.375Z,32.37
2022-11-29T04:59:01.158Z,32.63
2022-11-29T05:01:52.864Z,34.83
2022-11-29T05:04:30.111Z,37.60
2022-11-29T05:07:21.614Z,35.63
2022-11-29T05:10:29.591Z,36.37
2022-11-29T05:13:12.997Z,36.60
2022-11-29T05:16:00.574Z,33.23
2022-11-29T05:18:49.461Z,35.97
2022-11-29T05:21:46.521Z,34.73
2022-11-29T05:24:56.595Z,34.43
2022-11-29T05:27:47.051Z,33.70
2022-11-29T05:30:20.063Z,34.00
2022-11-29T05:33:12.866Z,35.07
2022-11-29T05:35:54.615Z,31.93
2022-11-29T05:38:38.878Z,34.70
2022-11-29T05:41:42.905Z,33.10
2022-11-29T05:44:19.779Z,35.63
2022-11-29T05:46:55.865Z,35.13
2022-11-29T05:49:40.781Z,33.97
2022-11-29T05:52:29.603Z,31.73
2022-11-29T05:55:27.157Z,35.53
2022-11-29T05:58:09.923Z,39.63
2022-11-29T06:00:53.766Z,31.83
2022-11-29T06:03:40.542Z,32.37
2022-11-29T06:06:33.718Z,40.57
2022-11-29T06:09:24.629Z,34.33
2022-11-29T06:12:02.473Z,35.17
2022-11-29T06:14:57.022Z,35.70
2022-11-29T06:17:52.342Z,33.50
2022-11-29T06:20:40.723Z,34.87
2022-11-29T06:23:24.821Z,36.87
2022-11-29T06:26:13.160Z,31.57
2022-11-29T06:29:01.747Z,31.33
2022-11-29T06:31:43.332Z,33.37
2022-11-29T06:34:10.056Z,33.53
2022-11-29T06:36:54.818Z,32.47
2022-11-29T06:39:21.650Z,37.67
2022-11-29T06:41:48.843Z,33.07
2022-11-29T06:44:15.860Z,35.20
2022-11-29T06:46:54.856Z,36.27
2022-11-29T06:49:27.662Z,32.67
2022-11-29T06:52:32.142Z,32.50
2022-11-29T06:55:24.175Z,38.47
2022-11-29T06:58:06.899Z,35.37
2022-11-29T07:00:59.158Z,30.57
2022-11-29T07:03:47.797Z,34.73
2022-11-29T07:06:28.582Z,34.90
2022-11-29T07:09:14.441Z,31.93
2022-11-29T07:11:41.737Z,32.90
2022-11-29T07:14:09.824Z,34.63
2022-11-29T07:17:27.736Z,30.00
2022-11-29T07:20:03.502Z,33.40
2022-11-29T07:23:14.616Z,32.87
2022-11-29T07:26:15.290Z,33.90
2022-11-29T07:28:58.185Z,30.83
2022-11-29T07:31:46.760Z,34.77
2022-11-29T07:34:51.625Z,35.07
2022-11-29T07:37:45.640Z,35.27
2022-11-29T07:40:26.343Z,32.30
2022-11-29T07:43:19.751Z,34.63
2022-11-29T07:45:46.385Z,35.17
2022-11-29T07:48:13.491Z,34.77
2022-11-29T07:50:40.936Z,32.67
2022-11-29T07:53:09.335Z,33.47
2022-11-29T07:55:37.047Z,38.30
2022-11-29T07:58:03.666Z,35.60
2022-11-29T08:00:30.283Z,31.73
2022-11-29T08:02:56.835Z,35.23
2022-11-29T08:05:23.968Z,33.03
2022-11-29T08:07:50.629Z,32.13
2022-11-29T08:10:17.557Z,33.37
2022-11-29T08:12:46.621Z,31.03
2022-11-29T08:15:13.906Z,35.57
2022-11-29T08:17:41.300Z,35.90
2022-11-29T08:20:09.607Z,34.70
2022-11-29T08:22:36.256Z,37.77
2022-11-29T08:25:04.066Z,33.70
2022-11-29T08:27:31.156Z,32.70
2022-11-29T08:29:57.824Z,33.90
2022-11-29T08:32:24.907Z,32.63
2022-11-29T08:34:51.611Z,33.57
2022-11-29T08:37:18.204Z,34.57
2022-11-29T08:39:44.760Z,31.63
2022-11-29T08:42:11.410Z,30.67
2022-11-29T08:44:38.035Z,34.40
2022-11-29T08:47:34.226Z,33.47
2022-11-29T08:50:03.670Z,32.87
2022-11-29T08:52:50.979Z,30.70
2022-11-29T08:55:19.899Z,33.30
2022-11-29T08:57:47.708Z,36.03
2022-11-29T09:00:15.180Z,33.67
2022-11-29T09:02:41.905Z,31.70
2022-11-29T09:05:10.194Z,34.90
2022-11-29T09:07:37.184Z,31.77
2022-11-29T09:10:08.065Z,29.97
2022-11-29T09:12:36.317Z,34.47
2022-11-29T09:15:06.153Z,32.97
2022-11-29T09:17:32.954Z,38.53
2022-11-29T09:19:59.502Z,37.10
2022-11-29T09:22:26.117Z,33.20
2022-11-29T09:24:52.738Z,34.43
2022-11-29T09:27:19.277Z,29.53
2022-11-29T09:29:45.968Z,32.00
2022-11-29T09:32:12.601Z,36.97
2022-11-29T09:34:39.202Z,30.23
2022-11-29T09:37:05.781Z,35.27
2022-11-29T09:39:32.433Z,32.60
2022-11-29T09:42:36.532Z,30.77
2022-11-29T09:45:13.805Z,34.43
2022-11-29T09:48:21.915Z,33.97
2022-11-29T09:50:57.007Z,36.03
2022-11-29T09:54:02.561Z,34.43
2022-11-29T09:56:38.813Z,35.10
2022-11-29T09:59:12.287Z,33.57
2022-11-29T10:01:43.167Z,32.43
2022-11-29T10:04:16.775Z,34.33
2022-11-29T10:06:50.289Z,32.37
2022-11-29T10:09:32.327Z,32.70
2022-11-29T10:12:13.161Z,38.40
2022-11-29T10:14:52.462Z,34.03
2022-11-29T10:17:24.716Z,31.27
2022-11-29T10:19:56.085Z,33.97
2022-11-29T10:22:40.820Z,33.73
2022-11-29T10:25:10.389Z,32.90
2022-11-29T10:27:40.273Z,32.90
2022-11-29T10:30:14.290Z,35.43
2022-11-29T10:32:43.803Z,33.33
2022-11-29T10:35:17.663Z,37.27
2022-11-29T10:38:01.552Z,32.43
2022-11-29T10:40:34.861Z,36.83
2022-11-29T10:43:02.170Z,30.07
2022-11-29T10:45:35.031Z,37.20
2022-11-29T10:48:17.588Z,32.53
2022-11-29T10:50:46.811Z,35.73
2022-11-29T10:53:19.633Z,35.17
2022-11-29T10:55:48.910Z,31.97
2022-11-29T10:58:24.729Z,34.07
2022-11-29T11:00:55.632Z,36.07
2022-11-29T11:03:39.264Z,35.00
2022-11-29T11:06:17.050Z,36.27
2022-11-29T11:08:52.394Z,34.27
2022-11-29T11:11:32.905Z,36.20
2022-11-29T11:14:19.342Z,34.67
2022-11-29T11:16:45.913Z,35.23
2022-11-29T11:19:30.258Z,35.70
2022-11-29T11:21:59.275Z,30.77
2022-11-29T11:24:29.986Z,32.87
2022-11-29T11:26:57.409Z,32.47
2022-11-29T11:29:26.991Z,35.93
2022-11-29T11:31:56.607Z,37.37
2022-11-29T11:34:34.191Z,36.83
2022-11-29T11:37:16.348Z,36.97
2022-11-29T11:39:44.506Z,36.33
2022-11-29T11:42:36.135Z,37.87
2022-11-29T11:45:25.972Z,37.53
2022-11-29T11:47:55.363Z,33.77
2022-11-29T11:50:41.981Z,39.43
2022-11-29T11:53:30.542Z,36.37
2022-11-29T11:56:03.964Z,35.70
2022-11-29T11:58:45.299Z,33.53
2022-11-29T12:01:11.783Z,37.30
2022-11-29T12:03:54.613Z,36.90
2022-11-29T12:06:42.462Z,34.77
2022-11-29T12:09:09.760Z,36.33
2022-11-29T12:12:04.137Z,37.03
2022-11-29T12:14:47.334Z,37.93
2022-11-29T12:17:36.411Z,37.77
2022-11-29T12:20:24.456Z,40.67
2022-11-29T12:23:05.054Z,35.37
2022-11-29T12:25:42.804Z,40.77
2022-11-29T12:28:20.021Z,36.40
2022-11-29T12:31:17.999Z,39.40
2022-11-29T12:34:05.191Z,37.77
2022-11-29T12:36:50.424Z,37.13
2022-11-29T12:39:46.214Z,37.27
2022-11-29T12:42:40.813Z,40.27
2022-11-29T12:45:37.524Z,37.47
2022-11-29T12:48:10.108Z,38.43
2022-11-29T12:50:57.765Z,40.17
2022-11-29T12:53:36.731Z,35.23
2022-11-29T12:56:27.724Z,39.13
2022-11-29T12:59:09.400Z,41.50
2022-11-29T13:02:00.602Z,44.83
2022-11-29T13:04:47.708Z,42.47
2022-11-29T13:07:39.825Z,38.63
2022-11-29T13:10:28.469Z,42.47
2022-11-29T13:13:18.971Z,41.53
2022-11-29T13:15:56.546Z,39.30
2022-11-29T13:18:33.625Z,43.47
2022-11-29T13:21:07.520Z,45.70
2022-11-29T13:24:07.864Z,39.23
2022-11-29T13:26:33.774Z,48.27
2022-11-29T13:29:02.014Z,36.40
2022-11-29T13:31:29.866Z,39.07
2022-11-29T13:34:08.063Z,38.10
2022-11-29T13:36:53.289Z,44.23
2022-11-29T13:39:55.274Z,42.37
2022-11-29T13:42:45.000Z,41.50
2022-11-29T13:45:42.091Z,48.57
2022-11-29T13:48:51.729Z,46.30
2022-11-29T13:51:32.361Z,46.47
2022-11-29T13:54:05.795Z,51.77
2022-11-29T13:56:46.465Z,42.30
2022-11-29T13:59:24.190Z,42.70
2022-11-29T14:01:53.444Z,40.53
2022-11-29T14:04:37.506Z,42.43
2022-11-29T14:07:11.219Z,38.90
2022-11-29T14:10:02.167Z,41.73
2022-11-29T14:12:48.611Z,39.53
2022-11-29T14:15:28.201Z,42.07
2022-11-29T14:18:08.097Z,41.97
2022-11-29T14:20:43.887Z,42.07
2022-11-29T14:23:15.967Z,42.90
2022-11-29T14:25:58.379Z,42.07
2022-11-29T14:28:24.862Z,42.37
2022-11-29T14:30:57.048Z,42.40
2022-11-29T14:33:50.831Z,41.00
2022-11-29T14:36:29.591Z,44.40
2022-11-29T14:39:18.737Z,42.13
2022-11-29T14:42:01.248Z,40.97
2022-11-29T14:44:30.784Z,39.17
2022-11-29T14:47:06.628Z,39.30
2022-11-29T14:49:44.548Z,39.00
2022-11-29T14:52:13.841Z,38.80
2022-11-29T14:55:09.391Z,45.63
2022-11-29T14:57:47.901Z,36.57
2022-11-29T15:00:26.470Z,39.53
2022-11-29T15:03:12.847Z,38.97
2022-11-29T15:06:00.354Z,43.83
2022-11-29T15:08:26.881Z,37.43
2022-11-29T15:11:02.956Z,36.10
2022-11-29T15:13:31.899Z,38.33
2022-11-29T15:16:17.186Z,37.70
2022-11-29T15:19:13.141Z,38.53
2022-11-29T15:21:56.037Z,37.20
2022-11-29T15:24:28.354Z,37.97
2022-11-29T15:27:00.394Z,38.77
2022-11-29T15:29:29.037Z,38.33
2022-11-29T15:32:03.524Z,37.57
2022-11-29T15:34:32.243Z,34.97
2022-11-29T15:37:00.088Z,40.00
2022-11-29T15:39:33.068Z,41.07
2022-11-29T15:42:00.990Z,40.77
2022-11-29T15:44:27.700Z,37.07
2022-11-29T15:46:54.277Z,41.70
2022-11-29T15:49:26.515Z,39.70
2022-11-29T15:52:01.268Z,39.20
2022-11-29T15:54:41.059Z,39.73
2022-11-29T15:57:34.177Z,39.50
2022-11-29T16:00:04.075Z,40.47
2022-11-29T16:02:33.693Z,41.73
2022-11-29T16:05:09.650Z,39.90
2022-11-29T16:07:38.665Z,40.20
2022-11-29T16:10:14.133Z,44.07
2022-11-29T16:12:55.028Z,50.47
2022-11-29T16:15:33.703Z,44.17
2022-11-29T16:18:12.579Z,43.80
2022-11-29T16:20:39.940Z,43.10
2022-11-29T16:23:13.783Z,39.67
2022-11-29T16:25:59.861Z,41.47
2022-11-29T16:28:33.631Z,41.07
2022-11-29T16:31:00.600Z,40.60
2022-11-29T16:33:27.682Z,41.87
2022-11-29T16:36:15.823Z,43.83
2022-11-29T16:38:47.290Z,39.50
2022-11-29T16:41:31.080Z,41.97
2022-11-29T16:43:58.236Z,42.73
2022-11-29T16:46:27.823Z,43.43
2022-11-29T16:48:56.748Z,44.90
2022-11-29T16:51:39.618Z,41.47
2022-11-29T16:54:27.652Z,42.80
2022-11-29T16:56:56.757Z,48.17
2022-11-29T16:59:28.028Z,42.33
2022-11-29T17:01:56.520Z,45.03
2022-11-29T17:04:24.662Z,42.37
2022-11-29T17:06:54.000Z,43.83
2022-11-29T17:09:27.252Z,40.03
2022-11-29T17:11:54.910Z,41.23
2022-11-29T17:14:22.035Z,40.73
2022-11-29T17:16:49.615Z,47.03
2022-11-29T17:19:16.447Z,42.17
2022-11-29T17:21:43.045Z,43.77
2022-11-29T17:24:12.904Z,42.53
2022-11-29T17:26:40.957Z,40.23
2022-11-29T17:29:09.229Z,42.67
2022-11-29T17:31:36.199Z,41.97
2022-11-29T17:34:03.340Z,43.63
2022-11-29T17:36:30.596Z,42.97
2022-11-29T17:38:59.459Z,44.80
2022-11-29T17:41:27.543Z,45.77
2022-11-29T17:43:55.830Z,42.17
2022-11-29T17:46:28.230Z,43.17
2022-11-29T17:48:55.480Z,42.77
2022-11-29T17:51:50.548Z,44.97
2022-11-29T17:54:10.944Z,43.37
2022-11-29T17:56:37.887Z,41.73
2022-11-29T17:59:04.855Z,47.93
2022-11-29T18:01:34.017Z,44.47
2022-11-29T18:04:02.414Z,47.57
2022-11-29T18:06:37.936Z,44.03
2022-11-29T18:09:06.902Z,47.07
2022-11-29T18:11:43.330Z,42.63
2022-11-29T18:14:15.410Z,43.23
2022-11-29T18:16:42.867Z,42.37
2022-11-29T18:19:12.578Z,44.90
2022-11-29T18:21:39.133Z,48.83
2022-11-29T18:24:06.965Z,44.63
2022-11-29T18:26:34.994Z,42.97
2022-11-29T18:29:01.634Z,49.60
2022-11-29T18:31:31.125Z,49.53
2022-11-29T18:34:06.769Z,46.47
2022-11-29T18:36:36.835Z,45.07
2022-11-29T18:39:08.868Z,45.83
2022-11-29T18:41:36.191Z,45.20
2022-11-29T18:44:05.899Z,42.53
2022-11-29T18:46:35.465Z,44.43
2022-11-29T18:49:03.863Z,43.73
2022-11-29T18:51:31.416Z,43.97
2022-11-29T18:53:58.679Z,40.50
2022-11-29T18:56:27.543Z,44.60
2022-11-29T18:58:58.549Z,44.77
2022-11-29T19:01:27.494Z,46.97
2022-11-29T19:03:56.704Z,42.90
2022-11-29T19:06:30.812Z,46.87
2022-11-29T19:09:03.370Z,46.57
2022-11-29T19:11:32.067Z,49.17
2022-11-29T19:14:01.157Z,41.67
2022-11-29T19:16:29.726Z,48.13
2022-11-29T19:18:58.441Z,50.53
2022-11-29T19:21:27.176Z,49.07
2022-11-29T19:23:56.293Z,46.13
2022-11-29T19:26:25.989Z,46.63
2022-11-29T19:28:55.861Z,47.43
2022-11-29T19:31:25.011Z,48.00
2022-11-29T19:33:53.394Z,46.33
2022-11-29T19:36:28.558Z,46.97
2022-11-29T19:38:55.301Z,48.17
2022-11-29T19:41:36.515Z,46.83
2022-11-29T19:44:05.957Z,47.60
2022-11-29T19:46:38.208Z,45.77
2022-11-29T19:49:06.151Z,44.27
2022-11-29T19:51:33.821Z,47.53
2022-11-29T19:54:03.286Z,45.90
2022-11-29T19:56:30.965Z,45.07
2022-11-29T19:58:59.610Z,44.57
2022-11-29T20:01:36.053Z,41.10
2022-11-29T20:04:06.199Z,46.37
2022-11-29T20:06:32.760Z,45.20
2022-11-29T20:08:59.384Z,42.30
2022-11-29T20:11:26.516Z,40.53
2022-11-29T20:13:56.245Z,45.73
2022-11-29T20:16:24.010Z,49.07
2022-11-29T20:18:51.583Z,48.07
2022-11-29T20:21:24.129Z,42.57
2022-11-29T20:23:58.473Z,44.10
2022-11-29T20:26:29.631Z,44.47
2022-11-29T20:28:56.241Z,47.03
2022-11-29T20:31:23.553Z,45.03
2022-11-29T20:33:51.972Z,45.33
2022-11-29T20:36:48.877Z,43.60
2022-11-29T20:39:42.517Z,50.37
2022-11-29T20:42:27.890Z,45.80
2022-11-29T20:44:57.466Z,48.43
2022-11-29T20:47:33.073Z,47.03
2022-11-29T20:49:59.877Z,47.87
2022-11-29T20:52:41.805Z,46.60
2022-11-29T20:55:08.573Z,46.77
2022-11-29T20:57:38.130Z,44.90
2022-11-29T21:00:07.667Z,45.83
2022-11-29T21:02:34.319Z,47.90
2022-11-29T21:05:00.864Z,48.70
2022-11-29T21:07:27.616Z,49.53
2022-11-29T21:10:00.725Z,51.07
2022-11-29T21:12:29.075Z,49.80
2022-11-29T21:14:56.089Z,50.27
2022-11-29T21:17:22.922Z,48.23
2022-11-29T21:19:49.720Z,49.00
2022-11-29T21:22:21.505Z,46.77
2022-11-29T21:25:15.311Z,49.83
2022-11-29T21:27:42.218Z,50.00
2022-11-29T21:30:20.446Z,50.93
2022-11-29T21:32:47.496Z,49.80
2022-11-29T21:35:14.881Z,47.67
2022-11-29T21:37:42.177Z,52.43
2022-11-29T21:40:09.809Z,50.67
2022-11-29T21:42:36.743Z,52.03
2022-11-29T21:45:04.665Z,48.00
2022-11-29T21:47:31.974Z,48.27
2022-11-29T21:49:58.807Z,46.83
2022-11-29T21:52:25.411Z,50.37
2022-11-29T21:54:52.010Z,47.87
2022-11-29T21:57:18.531Z,48.40
2022-11-29T21:59:45.153Z,47.27
2022-11-29T22:02:11.875Z,49.23
2022-11-29T22:04:38.527Z,46.87
2022-11-29T22:07:05.165Z,51.17
2022-11-29T22:09:31.695Z,55.37
2022-11-29T22:11:58.921Z,52.30
2022-11-29T22:14:25.476Z,48.97
2022-11-29T22:16:56.984Z,56.00
2022-11-29T22:19:29.603Z,51.57
2022-11-29T22:21:58.825Z,52.37
2022-11-29T22:24:27.715Z,50.40
2022-11-29T22:26:54.865Z,49.10
2022-11-29T22:29:22.218Z,52.70
2022-11-29T22:31:53.917Z,49.23
2022-11-29T22:34:22.188Z,52.43
2022-11-29T22:36:49.070Z,47.37
2022-11-29T22:39:15.605Z,50.63
2022-11-29T22:41:42.387Z,50.23
2022-11-29T22:44:09.243Z,52.03
2022-11-29T22:46:38.455Z,51.63
2022-11-29T22:49:05.090Z,51.53
2022-11-29T22:51:36.946Z,49.73
2022-11-29T22:54:06.613Z,53.50
2022-11-29T22:56:35.631Z,55.23
2022-11-29T22:59:02.328Z,52.10
2022-11-29T23:01:30.561Z,53.47
2022-11-29T23:04:00.015Z,51.40
2022-11-29T23:06:32.799Z,55.30
2022-11-29T23:09:05.151Z,49.47
2022-11-29T23:11:31.757Z,51.63
2022-11-29T23:13:58.332Z,50.47
2022-11-29T23:16:27.499Z,49.90
2022-11-29T23:18:56.389Z,51.97
2022-11-29T23:21:26.147Z,53.83
2022-11-29T23:23:56.319Z,53.87
2022-11-29T23:26:26.930Z,48.17
2022-11-29T23:28:54.466Z,49.53
2022-11-29T23:31:21.939Z,52.17
2022-11-29T23:33:48.810Z,53.07
2022-11-29T23:36:16.255Z,51.80
2022-11-29T23:38:43.483Z,53.30
2022-11-29T23:41:11.477Z,49.67
2022-11-29T23:43:40.343Z,52.77
2022-11-29T23:46:08.805Z,51.10
2022-11-29T23:48:35.492Z,50.50
2022-11-29T23:51:02.025Z,51.07
2022-11-29T23:53:28.964Z,50.57
2022-11-29T23:56:06.321Z,53.27
2022-11-29T23:58:34.568Z,51.13
